createdAt,value
2023-02-15T00:01:47.085Z,8.68
2023-02-15T00:04:14.302Z,8.98
2023-02-15T00:06:40.995Z,9.00
2023-02-15T00:09:07.749Z,8.80
2023-02-15T00:11:52.724Z,8.52
2023-02-15T00:14:22.849Z,8.10
2023-02-15T00:16:50.443Z,8.95
2023-02-15T00:19:18.172Z,8.57
2023-02-15T00:21:45.113Z,8.48
2023-02-15T00:24:12.774Z,8.68
2023-02-15T00:26:40.029Z,8.75
2023-02-15T00:29:06.794Z,8.32
2023-02-15T00:31:33.982Z,7.88
2023-02-15T00:34:04.753Z,8.23
2023-02-15T00:36:31.356Z,8.20
2023-02-15T00:38:57.829Z,8.27
2023-02-15T00:41:24.442Z,8.80
2023-02-15T00:43:50.940Z,8.75
2023-02-15T00:46:17.494Z,8.68
2023-02-15T00:48:44.043Z,8.10
2023-02-15T00:51:10.477Z,7.85
2023-02-15T00:53:36.893Z,8.50
2023-02-15T00:56:03.643Z,7.53
2023-02-15T00:58:30.315Z,8.10
2023-02-15T01:01:03.057Z,7.82
2023-02-15T01:03:29.559Z,7.65
2023-02-15T01:05:56.006Z,7.68
2023-02-15T01:08:22.371Z,7.32
2023-02-15T01:10:48.858Z,7.90
2023-02-15T01:13:16.372Z,7.90
2023-02-15T01:15:44.157Z,7.93
2023-02-15T01:18:13.768Z,7.65
2023-02-15T01:20:42.099Z,7.85
2023-02-15T01:23:09.069Z,7.57
2023-02-15T01:25:36.207Z,7.05
2023-02-15T01:28:02.824Z,7.47
2023-02-15T01:30:29.669Z,7.35
2023-02-15T01:32:56.068Z,7.35
2023-02-15T01:35:22.488Z,7.15
2023-02-15T01:37:48.864Z,7.93
2023-02-15T01:40:17.623Z,7.13
2023-02-15T01:42:44.125Z,7.45
2023-02-15T01:45:25.387Z,7.50
2023-02-15T01:47:55.583Z,7.65
2023-02-15T01:50:28.384Z,7.07
2023-02-15T01:53:04.012Z,7.45
2023-02-15T01:55:36.640Z,7.40
2023-02-15T01:58:03.579Z,6.97
2023-02-15T02:00:30.171Z,7.22
2023-02-15T02:02:57.820Z,7.07
2023-02-15T02:05:24.335Z,7.07
2023-02-15T02:07:52.874Z,7.30
2023-02-15T02:10:21.285Z,7.50
2023-02-15T02:12:49.252Z,7.50
2023-02-15T02:15:16.025Z,7.47
2023-02-15T02:18:00.099Z,7.50
2023-02-15T02:20:44.613Z,7.95
2023-02-15T02:23:11.051Z,7.00
2023-02-15T02:25:40.497Z,7.00
2023-02-15T02:28:09.744Z,7.88
2023-02-15T02:30:48.541Z,6.95
2023-02-15T02:33:29.106Z,7.78
2023-02-15T02:36:06.073Z,7.05
2023-02-15T02:38:51.099Z,7.55
2023-02-15T02:41:41.084Z,7.38
2023-02-15T02:44:11.531Z,7.57
2023-02-15T02:46:51.073Z,7.57
2023-02-15T02:49:17.508Z,6.65
2023-02-15T02:51:44.123Z,7.15
2023-02-15T02:54:10.613Z,7.65
2023-02-15T02:56:46.113Z,7.40
2023-02-15T02:59:21.327Z,7.20
2023-02-15T03:01:51.656Z,6.68
2023-02-15T03:04:24.795Z,7.13
2023-02-15T03:07:00.165Z,7.53
2023-02-15T03:09:35.654Z,7.20
2023-02-15T03:12:04.342Z,6.97
2023-02-15T03:14:30.943Z,6.93
2023-02-15T03:16:57.479Z,6.95
2023-02-15T03:19:26.043Z,6.80
2023-02-15T03:21:58.648Z,6.28
2023-02-15T03:24:27.840Z,6.38
2023-02-15T03:26:55.427Z,5.85
2023-02-15T03:29:23.314Z,6.22
2023-02-15T03:31:53.035Z,6.43
2023-02-15T03:34:19.716Z,6.43
2023-02-15T03:37:21.862Z,6.35
2023-02-15T03:39:48.276Z,6.28
2023-02-15T03:42:19.148Z,5.70
2023-02-15T03:45:14.923Z,5.63
2023-02-15T03:47:44.099Z,6.10
2023-02-15T03:50:46.418Z,6.07
2023-02-15T03:53:15.007Z,6.03
2023-02-15T03:55:41.506Z,6.03
2023-02-15T03:58:26.445Z,5.88
2023-02-15T04:01:14.858Z,5.95
2023-02-15T04:03:42.564Z,5.63
2023-02-15T04:06:08.984Z,5.82
2023-02-15T04:08:55.298Z,5.32
2023-02-15T04:11:21.788Z,5.20
2023-02-15T04:13:48.279Z,6.20
2023-02-15T04:16:15.001Z,5.28
2023-02-15T04:19:01.672Z,5.80
2023-02-15T04:21:47.744Z,5.97
2023-02-15T04:24:33.409Z,5.68
2023-02-15T04:27:00.324Z,5.13
2023-02-15T04:29:27.643Z,5.07
2023-02-15T04:31:55.039Z,5.22
2023-02-15T04:34:21.549Z,5.32
2023-02-15T04:36:47.940Z,5.32
2023-02-15T04:39:15.320Z,5.10
2023-02-15T04:41:41.799Z,5.32
2023-02-15T04:44:08.228Z,4.82
2023-02-15T04:46:34.714Z,5.15
2023-02-15T04:49:01.167Z,4.85
2023-02-15T04:51:27.667Z,5.20
2023-02-15T04:53:54.122Z,4.95
2023-02-15T04:56:20.948Z,4.75
2023-02-15T04:58:47.376Z,5.22
2023-02-15T05:01:13.975Z,5.03
2023-02-15T05:03:40.457Z,5.03
2023-02-15T05:06:06.900Z,4.80
2023-02-15T05:08:33.403Z,4.20
2023-02-15T05:10:59.881Z,4.68
2023-02-15T05:13:26.339Z,4.35
2023-02-15T05:15:53.309Z,4.70
2023-02-15T05:18:21.139Z,4.97
2023-02-15T05:20:48.077Z,4.45
2023-02-15T05:23:14.517Z,4.45
2023-02-15T05:25:59.890Z,4.32
2023-02-15T05:28:28.004Z,4.47
2023-02-15T05:31:03.811Z,4.45
2023-02-15T05:33:30.432Z,4.63
2023-02-15T05:35:56.847Z,4.10
2023-02-15T05:38:23.243Z,4.18
2023-02-15T05:40:50.237Z,4.30
2023-02-15T05:43:16.724Z,4.30
2023-02-15T05:45:47.137Z,4.43
2023-02-15T05:48:13.550Z,4.05
2023-02-15T05:50:39.940Z,4.53
2023-02-15T05:53:06.445Z,4.15
2023-02-15T05:55:33.007Z,4.15
2023-02-15T05:57:59.509Z,4.00
2023-02-15T06:00:26.415Z,4.60
2023-02-15T06:02:52.855Z,4.47
2023-02-15T06:05:19.316Z,4.45
2023-02-15T06:07:46.002Z,4.47
2023-02-15T06:10:12.689Z,4.57
2023-02-15T06:12:39.242Z,4.60
2023-02-15T06:15:05.882Z,4.55
2023-02-15T06:17:32.309Z,4.68
2023-02-15T06:19:58.824Z,4.45
2023-02-15T06:22:25.318Z,5.20
2023-02-15T06:24:51.682Z,4.82
2023-02-15T06:27:18.184Z,4.78
2023-02-15T06:29:44.664Z,4.82
2023-02-15T06:32:11.198Z,4.53
2023-02-15T06:34:37.658Z,5.45
2023-02-15T06:37:04.196Z,5.15
2023-02-15T06:39:30.653Z,4.68
2023-02-15T06:41:58.495Z,4.57
2023-02-15T06:44:24.903Z,5.15
2023-02-15T06:46:51.367Z,5.20
2023-02-15T06:49:17.786Z,4.78
2023-02-15T06:51:44.213Z,4.70
2023-02-15T06:54:10.617Z,4.97
2023-02-15T06:56:37.147Z,4.65
2023-02-15T06:59:04.286Z,4.97
2023-02-15T07:01:30.914Z,4.85
2023-02-15T07:03:57.327Z,4.72
2023-02-15T07:06:23.772Z,4.85
2023-02-15T07:08:50.459Z,4.97
2023-02-15T07:11:35.220Z,5.13
2023-02-15T07:14:01.589Z,5.03
2023-02-15T07:16:28.112Z,5.05
2023-02-15T07:18:54.564Z,4.85
2023-02-15T07:21:21.054Z,4.90
2023-02-15T07:23:47.529Z,4.22
2023-02-15T07:26:13.963Z,4.70
2023-02-15T07:28:40.452Z,4.57
2023-02-15T07:31:07.279Z,4.28
2023-02-15T07:33:34.052Z,4.75
2023-02-15T07:36:03.253Z,4.35
2023-02-15T07:38:34.304Z,4.32
2023-02-15T07:41:05.855Z,4.78
2023-02-15T07:43:33.945Z,4.10
2023-02-15T07:46:01.708Z,4.70
2023-02-15T07:48:28.360Z,4.28
2023-02-15T07:50:54.829Z,4.22
2023-02-15T07:53:21.234Z,5.25
2023-02-15T07:55:47.672Z,4.60
2023-02-15T07:58:14.048Z,4.70
2023-02-15T08:00:58.841Z,4.65
2023-02-15T08:03:27.840Z,5.05
2023-02-15T08:05:59.124Z,5.03
2023-02-15T08:08:32.210Z,4.88
2023-02-15T08:11:26.594Z,5.00
2023-02-15T08:13:56.144Z,5.10
2023-02-15T08:16:26.615Z,5.00
2023-02-15T08:18:53.678Z,5.05
2023-02-15T08:21:20.926Z,5.53
2023-02-15T08:23:47.381Z,5.10
2023-02-15T08:26:13.947Z,5.72
2023-02-15T08:28:42.318Z,5.10
2023-02-15T08:31:09.743Z,5.07
2023-02-15T08:33:37.236Z,5.43
2023-02-15T08:36:04.952Z,5.25
2023-02-15T08:38:33.515Z,4.75
2023-02-15T08:41:10.166Z,5.15
2023-02-15T08:43:36.641Z,5.40
2023-02-15T08:46:03.156Z,5.60
2023-02-15T08:48:29.594Z,5.00
2023-02-15T08:50:56.175Z,5.35
2023-02-15T08:53:22.824Z,5.22
2023-02-15T08:55:56.264Z,5.40
2023-02-15T08:58:22.695Z,5.40
2023-02-15T09:00:49.182Z,5.78
2023-02-15T09:03:15.751Z,5.05
2023-02-15T09:05:42.215Z,5.93
2023-02-15T09:08:08.760Z,5.50
2023-02-15T09:10:35.221Z,5.32
2023-02-15T09:13:01.667Z,5.90
2023-02-15T09:15:28.274Z,5.35
2023-02-15T09:17:54.652Z,5.75
2023-02-15T09:20:21.111Z,5.38
2023-02-15T09:22:47.535Z,5.95
2023-02-15T09:25:14.659Z,5.25
2023-02-15T09:27:42.148Z,5.65
2023-02-15T09:30:09.110Z,5.80
2023-02-15T09:32:35.545Z,4.93
2023-02-15T09:35:02.003Z,4.75
2023-02-15T09:37:28.455Z,5.65
2023-02-15T09:39:55.666Z,5.55
2023-02-15T09:42:32.600Z,5.82
2023-02-15T09:45:04.505Z,5.55
2023-02-15T09:47:38.092Z,5.25
2023-02-15T09:50:23.513Z,6.30
2023-02-15T09:52:49.889Z,5.75
2023-02-15T09:55:25.526Z,5.50
2023-02-15T09:58:00.963Z,5.20
2023-02-15T10:00:36.523Z,5.40
2023-02-15T10:03:12.909Z,6.45
2023-02-15T10:05:42.072Z,5.57
2023-02-15T10:08:25.282Z,5.53
2023-02-15T10:11:21.323Z,5.97
2023-02-15T10:13:55.832Z,5.70
2023-02-15T10:16:42.555Z,6.70
2023-02-15T10:19:15.464Z,6.85
2023-02-15T10:21:44.983Z,5.82
2023-02-15T10:24:42.110Z,6.07
2023-02-15T10:27:15.106Z,6.53
2023-02-15T10:29:47.494Z,7.63
2023-02-15T10:34:44.349Z,6.72
2023-02-15T10:37:10.764Z,7.00
2023-02-15T10:39:54.333Z,6.78
2023-02-15T10:42:23.814Z,6.45
2023-02-15T10:44:50.209Z,6.80
2023-02-15T10:47:16.592Z,6.05
2023-02-15T10:49:58.323Z,6.40
2023-02-15T10:52:43.539Z,7.27
2023-02-15T10:55:24.011Z,7.78
2023-02-15T10:58:26.866Z,8.23
2023-02-15T11:03:19.655Z,7.28
2023-02-15T11:05:55.933Z,7.97
2023-02-15T11:08:24.613Z,9.48
2023-02-15T11:10:54.992Z,8.95
2023-02-15T11:13:23.416Z,7.65
2023-02-15T11:15:49.877Z,8.63
2023-02-15T11:18:19.223Z,7.90
2023-02-15T11:20:55.355Z,7.85
2023-02-15T11:23:21.893Z,7.53
2023-02-15T11:26:07.305Z,8.25
2023-02-15T11:28:52.205Z,8.40
2023-02-15T11:31:20.443Z,7.82
2023-02-15T11:33:48.733Z,9.23
2023-02-15T11:36:21.311Z,7.85
2023-02-15T11:38:49.985Z,8.30
2023-02-15T11:41:20.176Z,8.00
2023-02-15T11:43:53.526Z,7.75
2023-02-15T11:46:22.008Z,7.55
2023-02-15T11:48:48.713Z,7.70
2023-02-15T11:51:17.140Z,7.80
2023-02-15T11:53:44.734Z,7.90
2023-02-15T11:56:18.153Z,7.88
2023-02-15T11:58:56.929Z,7.88
2023-02-15T12:01:37.697Z,7.70
2023-02-15T12:04:16.936Z,7.93
2023-02-15T12:07:03.757Z,8.20
2023-02-15T12:09:36.114Z,8.13
2023-02-15T12:14:47.113Z,8.05
2023-02-15T12:17:14.386Z,8.00
2023-02-15T12:19:41.644Z,7.90
2023-02-15T12:22:19.153Z,8.40
2023-02-15T12:24:47.220Z,8.20
2023-02-15T12:27:16.722Z,8.57
2023-02-15T12:29:45.328Z,7.72
2023-02-15T12:32:19.653Z,7.93
2023-02-15T12:34:47.633Z,8.20
2023-02-15T12:37:35.663Z,8.35
2023-02-15T12:40:11.352Z,8.05
2023-02-15T12:42:45.611Z,8.30
2023-02-15T12:45:23.032Z,7.97
2023-02-15T12:48:08.478Z,7.90
2023-02-15T12:50:35.246Z,7.72
2023-02-15T12:53:13.767Z,8.50
2023-02-15T12:55:50.181Z,7.72
2023-02-15T12:58:18.648Z,7.57
2023-02-15T13:00:45.605Z,8.30
2023-02-15T13:03:22.729Z,7.57
2023-02-15T13:05:51.811Z,7.65
2023-02-15T13:08:22.545Z,9.38
2023-02-15T13:11:04.794Z,7.30
2023-02-15T13:13:35.573Z,8.32
2023-02-15T13:16:12.587Z,8.10
2023-02-15T13:18:40.118Z,8.30
2023-02-15T13:21:10.830Z,8.13
2023-02-15T13:23:38.671Z,8.13
2023-02-15T13:26:06.198Z,8.07
2023-02-15T13:28:38.606Z,10.02
2023-02-15T13:33:34.423Z,8.63
2023-02-15T13:36:00.922Z,8.98
2023-02-15T13:38:36.414Z,8.63
2023-02-15T13:41:05.278Z,8.85
2023-02-15T13:43:50.300Z,9.10
2023-02-15T13:46:28.647Z,8.18
2023-02-15T13:48:58.057Z,9.45
2023-02-15T13:51:30.678Z,8.77
2023-02-15T13:54:17.357Z,8.73
2023-02-15T13:56:45.365Z,8.98
2023-02-15T13:59:12.096Z,8.18
2023-02-15T14:01:58.766Z,8.48
2023-02-15T14:04:34.471Z,9.00
2023-02-15T14:07:17.562Z,9.10
2023-02-15T14:09:48.599Z,8.57
2023-02-15T14:12:15.108Z,8.63
2023-02-15T14:14:41.741Z,9.07
2023-02-15T14:17:26.929Z,8.73
2023-02-15T14:20:02.407Z,8.80
2023-02-15T14:22:49.052Z,8.48
2023-02-15T14:25:21.891Z,8.52
2023-02-15T14:27:55.192Z,8.38
2023-02-15T14:30:24.216Z,7.93
2023-02-15T14:32:53.308Z,8.50
2023-02-15T14:35:21.004Z,7.85
2023-02-15T14:38:01.948Z,8.68
2023-02-15T14:40:46.792Z,8.88
2023-02-15T14:43:20.407Z,8.60
2023-02-15T14:45:49.819Z,8.07
2023-02-15T14:48:21.483Z,7.97
2023-02-15T14:50:48.373Z,8.07
2023-02-15T14:53:33.479Z,8.48
2023-02-15T14:56:06.205Z,8.30
2023-02-15T14:58:33.087Z,8.27
2023-02-15T15:01:10.394Z,8.25
2023-02-15T15:03:37.569Z,8.13
2023-02-15T15:06:06.179Z,8.32
2023-02-15T15:08:38.323Z,8.35
2023-02-15T15:11:42.041Z,7.35
2023-02-15T15:14:09.799Z,8.00
2023-02-15T15:16:36.273Z,7.50
2023-02-15T15:19:03.789Z,7.93
2023-02-15T15:21:45.533Z,8.32
2023-02-15T15:24:31.910Z,8.30
2023-02-15T15:27:17.504Z,7.93
2023-02-15T15:29:45.756Z,8.88
2023-02-15T15:32:27.943Z,8.27
2023-02-15T15:35:05.563Z,9.02
2023-02-15T15:37:44.081Z,8.68
2023-02-15T15:40:16.436Z,8.75
2023-02-15T15:45:27.640Z,9.18
2023-02-15T15:48:06.962Z,8.60
2023-02-15T15:50:34.610Z,9.25
2023-02-15T15:53:02.273Z,9.35
2023-02-15T15:55:30.295Z,9.82
2023-02-15T15:57:58.411Z,9.60
2023-02-15T16:00:43.594Z,9.85
2023-02-15T16:03:30.314Z,9.93
2023-02-15T16:05:57.251Z,9.90
2023-02-15T16:08:34.009Z,9.65
2023-02-15T16:11:01.355Z,9.82
2023-02-15T16:13:27.934Z,9.60
2023-02-15T16:15:55.952Z,9.93
2023-02-15T16:18:26.127Z,9.68
2023-02-15T16:20:56.517Z,9.77
2023-02-15T16:23:25.681Z,9.13
2023-02-15T16:26:10.611Z,9.70
2023-02-15T16:28:37.028Z,9.68
2023-02-15T16:31:13.556Z,9.60
2023-02-15T16:33:40.891Z,10.32
2023-02-15T16:36:11.129Z,9.68
2023-02-15T16:38:43.678Z,10.07
2023-02-15T16:41:23.654Z,9.82
2023-02-15T16:43:50.718Z,9.68
2023-02-15T16:46:21.650Z,9.27
2023-02-15T16:48:49.752Z,9.68
2023-02-15T16:51:21.469Z,9.50
2023-02-15T16:53:49.056Z,9.73
2023-02-15T16:56:17.020Z,9.48
2023-02-15T16:58:45.025Z,10.35
2023-02-15T17:01:13.101Z,10.18
2023-02-15T17:03:40.485Z,9.88
2023-02-15T17:06:20.517Z,9.88
2023-02-15T17:08:48.044Z,10.32
2023-02-15T17:11:21.643Z,10.80
2023-02-15T17:14:10.574Z,10.75
2023-02-15T17:16:38.233Z,10.50
2023-02-15T17:19:30.960Z,10.48
2023-02-15T17:24:32.632Z,11.38
2023-02-15T17:27:01.808Z,10.57
2023-02-15T17:29:38.609Z,11.02
2023-02-15T17:32:06.542Z,11.40
2023-02-15T17:34:50.278Z,11.07
2023-02-15T17:37:28.653Z,12.05
2023-02-15T17:39:55.675Z,12.05
2023-02-15T17:42:22.074Z,12.02
2023-02-15T17:44:49.229Z,12.48
2023-02-15T17:47:20.448Z,12.50
2023-02-15T17:49:49.978Z,13.63
2023-02-15T17:52:17.814Z,13.88
2023-02-15T17:55:02.864Z,12.70
2023-02-15T17:57:29.882Z,14.45
2023-02-15T18:00:14.655Z,14.52
2023-02-15T18:02:59.716Z,13.48
2023-02-15T18:05:44.674Z,14.65
2023-02-15T18:08:40.231Z,14.55
2023-02-15T18:11:25.049Z,15.10
2023-02-15T18:13:51.441Z,15.32
2023-02-15T18:16:21.610Z,16.23
2023-02-15T18:18:48.080Z,14.88
2023-02-15T18:21:14.900Z,15.80
2023-02-15T18:23:42.523Z,15.43
2023-02-15T18:26:12.934Z,16.67
2023-02-15T18:28:39.353Z,16.50
2023-02-15T18:31:06.163Z,16.75
2023-02-15T18:33:37.321Z,16.95
2023-02-15T18:36:06.681Z,16.05
2023-02-15T18:38:33.416Z,16.88
2023-02-15T18:41:01.504Z,17.20
2023-02-15T18:43:28.130Z,17.10
2023-02-15T18:45:54.611Z,16.42
2023-02-15T18:48:21.021Z,16.92
2023-02-15T18:50:47.539Z,17.27
2023-02-15T18:53:20.788Z,17.20
2023-02-15T18:55:47.562Z,17.58
2023-02-15T18:58:16.282Z,16.35
2023-02-15T19:00:45.435Z,17.20
2023-02-15T19:03:13.073Z,18.65
2023-02-15T19:05:40.706Z,16.55
2023-02-15T19:08:13.190Z,16.98
2023-02-15T19:10:39.591Z,16.52
2023-02-15T19:13:09.839Z,17.67
2023-02-15T19:15:36.561Z,18.83
2023-02-15T19:18:03.361Z,19.10
2023-02-15T19:20:31.448Z,18.98
2023-02-15T19:23:00.583Z,19.05
2023-02-15T19:25:28.489Z,18.10
2023-02-15T19:27:55.412Z,18.33
2023-02-15T19:30:23.672Z,17.88
2023-02-15T19:32:50.157Z,18.45
2023-02-15T19:35:17.569Z,18.55
2023-02-15T19:37:45.732Z,18.58
2023-02-15T19:40:32.446Z,22.02
2023-02-15T19:42:59.003Z,20.30
2023-02-15T19:45:26.950Z,18.98
2023-02-15T19:47:55.374Z,18.88
2023-02-15T19:50:23.739Z,18.75
2023-02-15T19:52:50.440Z,18.67
2023-02-15T19:55:28.848Z,20.08
2023-02-15T19:57:56.144Z,19.30
2023-02-15T20:00:25.649Z,19.40
2023-02-15T20:02:52.540Z,19.17
2023-02-15T20:05:19.601Z,19.38
2023-02-15T20:07:47.428Z,20.20
2023-02-15T20:10:17.821Z,19.70
2023-02-15T20:12:44.731Z,20.23
2023-02-15T20:15:19.101Z,19.73
2023-02-15T20:17:45.539Z,20.02
2023-02-15T20:20:13.557Z,20.10
2023-02-15T20:22:41.033Z,20.58
2023-02-15T20:25:10.328Z,18.80
2023-02-15T20:27:37.765Z,18.50
2023-02-15T20:30:04.719Z,18.35
2023-02-15T20:32:31.356Z,18.52
2023-02-15T20:34:57.942Z,18.38
2023-02-15T20:37:28.876Z,17.83
2023-02-15T20:39:55.352Z,19.10
2023-02-15T20:42:21.712Z,18.52
2023-02-15T20:44:48.148Z,18.02
2023-02-15T20:47:14.538Z,17.70
2023-02-15T20:49:41.928Z,18.25
2023-02-15T20:52:18.366Z,16.88
2023-02-15T20:54:44.857Z,17.02
2023-02-15T20:57:14.313Z,17.55
2023-02-15T20:59:41.087Z,17.30
2023-02-15T21:02:13.348Z,18.77
2023-02-15T21:04:39.746Z,18.33
2023-02-15T21:07:06.158Z,18.10
2023-02-15T21:09:32.647Z,18.67
2023-02-15T21:12:02.527Z,17.90
2023-02-15T21:14:29.360Z,17.40
2023-02-15T21:16:55.792Z,17.95
2023-02-15T21:19:23.374Z,18.40
2023-02-15T21:21:50.788Z,19.05
2023-02-15T21:24:20.249Z,18.60
2023-02-15T21:26:47.136Z,19.23
2023-02-15T21:29:14.724Z,17.95
2023-02-15T21:31:41.343Z,17.65
2023-02-15T21:34:07.825Z,18.40
2023-02-15T21:36:34.346Z,18.50
2023-02-15T21:39:03.451Z,18.92
2023-02-15T21:41:48.549Z,19.33
2023-02-15T21:44:35.008Z,18.95
2023-02-15T21:47:20.116Z,19.50
2023-02-15T21:49:46.491Z,18.73
2023-02-15T21:52:14.315Z,19.65
2023-02-15T21:54:41.316Z,19.65
2023-02-15T21:57:12.765Z,19.52
2023-02-15T21:59:39.774Z,18.57
2023-02-15T22:02:21.094Z,18.63
2023-02-15T22:04:47.475Z,19.02
2023-02-15T22:07:16.403Z,18.73
2023-02-15T22:09:42.782Z,18.98
2023-02-15T22:12:14.624Z,19.33
2023-02-15T22:14:41.875Z,19.42
2023-02-15T22:17:19.055Z,18.55
2023-02-15T22:19:46.348Z,19.40
2023-02-15T22:22:13.148Z,18.55
2023-02-15T22:24:39.652Z,20.02
2023-02-15T22:27:06.665Z,19.20
2023-02-15T22:29:33.998Z,18.33
2023-02-15T22:32:00.477Z,18.92
2023-02-15T22:34:30.982Z,20.55
2023-02-15T22:36:58.209Z,18.88
2023-02-15T22:39:25.404Z,18.92
2023-02-15T22:41:52.202Z,18.23
2023-02-15T22:44:23.599Z,18.92
2023-02-15T22:46:50.362Z,20.00
2023-02-15T22:49:17.021Z,19.98
2023-02-15T22:51:46.141Z,19.92
2023-02-15T22:54:12.538Z,19.70
2023-02-15T22:56:40.104Z,19.42
2023-02-15T22:59:08.425Z,19.33
2023-02-15T23:01:36.000Z,19.20
2023-02-15T23:04:03.773Z,18.40
2023-02-15T23:06:30.714Z,19.08
2023-02-15T23:08:57.133Z,17.83
2023-02-15T23:11:23.600Z,17.40
2023-02-15T23:13:50.100Z,17.92
2023-02-15T23:16:17.018Z,17.70
2023-02-15T23:18:44.765Z,17.05
2023-02-15T23:21:17.294Z,17.15
2023-02-15T23:23:44.560Z,17.73
2023-02-15T23:26:16.959Z,17.25
2023-02-15T23:31:20.985Z,17.15
2023-02-15T23:33:48.117Z,17.20
2023-02-15T23:36:24.399Z,16.42
2023-02-15T23:38:50.865Z,16.00
2023-02-15T23:41:19.392Z,16.27
2023-02-15T23:43:56.587Z,16.45
2023-02-15T23:46:25.736Z,16.20
2023-02-15T23:48:53.122Z,16.02
2023-02-15T23:51:20.365Z,16.83
2023-02-15T23:53:46.767Z,15.82
2023-02-15T23:56:14.101Z,15.70
2023-02-15T23:58:41.877Z,15.77
